createdAt,value
2018-03-18T00:00:14.747Z,72.80
2018-03-18T00:02:42.214Z,72.90
2018-03-18T00:05:09.683Z,73.30
2018-03-18T00:07:37.150Z,73.80
2018-03-18T00:10:05.651Z,72.80
2018-03-18T00:12:33.129Z,72.70
2018-03-18T00:15:01.002Z,73.40
2018-03-18T00:17:28.477Z,72.50
2018-03-18T00:19:55.938Z,72.10
2018-03-18T00:22:23.403Z,72.50
2018-03-18T00:24:51.639Z,72.00
2018-03-18T00:27:19.107Z,71.90
2018-03-18T00:29:46.605Z,72.40
2018-03-18T00:32:14.062Z,72.00
2018-03-18T00:34:42.348Z,71.90
2018-03-18T00:37:09.816Z,72.10
2018-03-18T00:39:38.060Z,72.30
2018-03-18T00:42:05.519Z,72.20
2018-03-18T00:44:33.703Z,72.50
2018-03-18T00:47:01.168Z,71.90
2018-03-18T00:49:28.668Z,71.40
2018-03-18T00:52:01.710Z,71.90
2018-03-18T00:54:29.180Z,71.70
2018-03-18T00:56:56.642Z,71.50
2018-03-18T00:59:24.892Z,72.00
2018-03-18T01:01:52.374Z,71.20
2018-03-18T01:04:19.861Z,71.20
2018-03-18T01:06:48.246Z,71.50
2018-03-18T01:09:15.730Z,71.40
2018-03-18T01:11:43.204Z,71.00
2018-03-18T01:14:10.677Z,71.40
2018-03-18T01:16:38.143Z,71.00
2018-03-18T01:19:05.606Z,70.70
2018-03-18T01:21:33.067Z,70.60
2018-03-18T01:24:00.534Z,71.20
2018-03-18T01:26:28.770Z,70.80
2018-03-18T01:28:56.268Z,70.70
2018-03-18T01:31:24.492Z,71.70
2018-03-18T01:33:51.989Z,71.00
2018-03-18T01:36:20.222Z,70.80
2018-03-18T01:38:47.769Z,70.80
2018-03-18T01:41:15.494Z,71.10
2018-03-18T01:43:42.993Z,70.90
2018-03-18T01:46:10.465Z,70.70
2018-03-18T01:48:37.929Z,71.30
2018-03-18T01:51:05.405Z,71.60
2018-03-18T01:53:33.639Z,71.90
2018-03-18T01:56:01.454Z,71.90
2018-03-18T01:58:28.939Z,72.10
2018-03-18T02:00:57.181Z,72.70
2018-03-18T02:03:24.643Z,72.60
2018-03-18T02:05:52.110Z,73.70
2018-03-18T02:08:19.579Z,73.50
2018-03-18T02:10:47.822Z,74.70
2018-03-18T02:13:15.278Z,73.80
2018-03-18T02:15:42.902Z,74.10
2018-03-18T02:18:11.342Z,74.20
2018-03-18T02:20:39.335Z,74.20
2018-03-18T02:23:07.640Z,75.40
2018-03-18T02:25:36.804Z,75.30
2018-03-18T02:28:04.506Z,74.20
2018-03-18T02:30:32.200Z,74.70
2018-03-18T02:32:59.738Z,74.80
2018-03-18T02:35:27.215Z,75.10
2018-03-18T02:37:54.690Z,75.50
2018-03-18T02:40:22.204Z,75.10
2018-03-18T02:42:50.214Z,75.20
2018-03-18T02:45:17.803Z,74.80
2018-03-18T02:47:46.031Z,75.50
2018-03-18T02:50:13.557Z,75.40
2018-03-18T02:52:41.017Z,75.40
2018-03-18T02:55:08.542Z,75.60
2018-03-18T02:57:35.966Z,76.10
2018-03-18T03:00:03.437Z,75.80
2018-03-18T03:02:30.907Z,76.30
2018-03-18T03:04:58.377Z,75.40
2018-03-18T03:07:26.470Z,75.90
2018-03-18T03:09:55.637Z,75.30
2018-03-18T03:12:23.643Z,75.30
2018-03-18T03:14:51.134Z,75.20
2018-03-18T03:17:18.598Z,75.50
2018-03-18T03:19:46.075Z,75.90
2018-03-18T03:22:13.539Z,76.00
2018-03-18T03:24:41.396Z,75.50
2018-03-18T03:27:08.850Z,75.80
2018-03-18T03:29:36.635Z,75.60
2018-03-18T03:32:04.100Z,75.90
2018-03-18T03:34:31.578Z,76.00
2018-03-18T03:36:59.804Z,74.30
2018-03-18T03:39:27.267Z,74.30
2018-03-18T03:41:54.815Z,74.30
2018-03-18T03:44:22.272Z,75.00
2018-03-18T03:46:49.738Z,75.50
2018-03-18T03:49:17.211Z,75.30
2018-03-18T03:51:44.681Z,75.40
2018-03-18T03:54:12.190Z,76.30
2018-03-18T03:56:39.662Z,75.80
2018-03-18T03:59:07.162Z,75.90
2018-03-18T04:01:34.642Z,75.40
2018-03-18T04:04:02.868Z,75.10
2018-03-18T04:06:30.351Z,75.10
2018-03-18T04:08:57.845Z,75.70
2018-03-18T04:11:25.365Z,75.90
2018-03-18T04:13:52.831Z,75.80
2018-03-18T04:16:20.314Z,75.60
2018-03-18T04:18:48.589Z,76.00
2018-03-18T04:21:16.835Z,75.70
2018-03-18T04:23:44.334Z,75.70
2018-03-18T04:26:11.822Z,76.00
2018-03-18T04:28:39.283Z,75.70
2018-03-18T04:31:06.770Z,75.30
2018-03-18T04:33:34.231Z,75.70
2018-03-18T04:36:01.709Z,75.40
2018-03-18T04:38:29.955Z,75.40
2018-03-18T04:40:57.424Z,75.30
2018-03-18T04:43:24.894Z,75.40
2018-03-18T04:45:53.173Z,75.30
2018-03-18T04:48:21.432Z,75.50
2018-03-18T04:50:48.890Z,75.50
2018-03-18T04:53:16.359Z,75.30
2018-03-18T04:55:43.878Z,75.10
2018-03-18T04:58:11.346Z,75.70
2018-03-18T05:00:38.863Z,75.70
2018-03-18T05:03:06.339Z,74.80
2018-03-18T05:05:33.835Z,74.40
2018-03-18T05:08:01.311Z,74.50
2018-03-18T05:10:28.774Z,74.90
2018-03-18T05:12:57.007Z,74.50
2018-03-18T05:15:24.478Z,74.40
2018-03-18T05:17:51.941Z,74.20
2018-03-18T05:20:19.406Z,74.30
2018-03-18T05:22:46.895Z,74.10
2018-03-18T05:25:15.164Z,74.30
2018-03-18T05:27:43.403Z,74.00
2018-03-18T05:30:10.867Z,73.90
2018-03-18T05:32:38.343Z,74.30
2018-03-18T05:35:05.836Z,74.10
2018-03-18T05:37:33.340Z,73.90
2018-03-18T05:40:00.835Z,74.00
2018-03-18T05:42:29.078Z,73.50
2018-03-18T05:44:56.587Z,73.50
2018-03-18T05:47:24.885Z,73.00
2018-03-18T05:49:52.363Z,73.00
2018-03-18T05:52:19.833Z,72.00
2018-03-18T05:54:47.329Z,71.80
2018-03-18T05:57:15.559Z,71.60
2018-03-18T05:59:43.120Z,71.40
2018-03-18T06:02:10.589Z,71.40
2018-03-18T06:04:38.081Z,72.10
2018-03-18T06:07:06.318Z,72.10
2018-03-18T06:09:34.529Z,72.10
2018-03-18T06:12:02.841Z,71.90
2018-03-18T06:14:30.305Z,71.80
2018-03-18T06:16:58.159Z,71.40
2018-03-18T06:19:25.684Z,71.90
2018-03-18T06:21:53.169Z,71.70
2018-03-18T06:24:21.415Z,71.60
2018-03-18T06:26:48.900Z,71.60
2018-03-18T06:29:17.158Z,71.00
2018-03-18T06:31:44.628Z,71.00
2018-03-18T06:34:13.626Z,71.40
2018-03-18T06:36:41.862Z,70.90
2018-03-18T06:39:09.341Z,70.90
2018-03-18T06:41:36.812Z,70.90
2018-03-18T06:44:05.059Z,70.10
2018-03-18T06:46:32.586Z,70.00
2018-03-18T06:49:00.084Z,69.90
2018-03-18T06:51:27.602Z,69.80
2018-03-18T06:53:55.079Z,69.20
2018-03-18T06:56:22.617Z,69.50
2018-03-18T06:58:50.095Z,69.60
2018-03-18T07:01:17.633Z,69.80
2018-03-18T07:03:45.140Z,69.30
2018-03-18T07:06:12.617Z,69.30
2018-03-18T07:08:40.867Z,68.80
2018-03-18T07:11:08.352Z,68.60
2018-03-18T07:13:36.611Z,67.70
2018-03-18T07:16:04.083Z,67.70
2018-03-18T07:18:32.396Z,66.60
2018-03-18T07:20:59.921Z,66.60
2018-03-18T07:23:27.412Z,67.10
2018-03-18T07:25:54.891Z,67.20
2018-03-18T07:28:22.351Z,66.90
2018-03-18T07:30:49.832Z,67.10
2018-03-18T07:33:17.307Z,67.70
2018-03-18T07:35:44.774Z,67.00
2018-03-18T07:38:13.000Z,67.60
2018-03-18T07:40:44.120Z,67.50
2018-03-18T07:43:11.578Z,67.20
2018-03-18T07:45:39.071Z,66.50
2018-03-18T07:48:06.544Z,66.80
2018-03-18T07:50:34.083Z,66.80
2018-03-18T07:53:02.270Z,66.30
2018-03-18T07:55:30.590Z,66.30
2018-03-18T07:57:58.903Z,66.30
2018-03-18T08:00:27.155Z,66.30
2018-03-18T08:02:54.815Z,67.20
2018-03-18T08:05:23.052Z,65.80
2018-03-18T08:07:50.626Z,65.80
2018-03-18T08:10:18.205Z,65.80
2018-03-18T08:12:59.282Z,69.30
2018-03-18T08:15:27.221Z,69.30
2018-03-18T08:17:54.791Z,76.60
2018-03-18T08:20:22.260Z,68.70
2018-03-18T08:22:50.559Z,64.70
2018-03-18T08:25:18.032Z,64.80
2018-03-18T08:27:45.752Z,66.30
2018-03-18T08:30:13.475Z,67.50
2018-03-18T08:32:40.959Z,65.80
2018-03-18T08:35:08.443Z,62.30
2018-03-18T08:37:36.678Z,63.20
2018-03-18T08:40:04.174Z,63.00
2018-03-18T08:42:34.040Z,62.90
2018-03-18T08:45:01.526Z,62.00
2018-03-18T08:47:28.990Z,61.30
2018-03-18T08:49:56.545Z,63.00
2018-03-18T08:52:24.834Z,61.20
2018-03-18T08:54:52.659Z,64.10
2018-03-18T08:57:20.246Z,63.30
2018-03-18T08:59:47.731Z,63.10
2018-03-18T09:02:15.983Z,61.80
2018-03-18T09:04:43.486Z,61.70
2018-03-18T09:07:10.954Z,63.20
2018-03-18T09:09:38.688Z,59.00
2018-03-18T09:12:06.934Z,60.50
2018-03-18T09:14:34.613Z,59.90
2018-03-18T09:17:02.184Z,60.50
2018-03-18T09:19:30.132Z,60.10
2018-03-18T09:21:57.597Z,60.50
2018-03-18T09:24:25.068Z,59.20
2018-03-18T09:26:52.547Z,58.80
2018-03-18T09:29:20.062Z,59.80
2018-03-18T09:31:48.699Z,58.60
2018-03-18T09:34:16.207Z,57.60
2018-03-18T09:36:45.104Z,57.90
2018-03-18T09:39:12.586Z,58.40
2018-03-18T09:41:40.880Z,57.70
2018-03-18T09:44:09.129Z,58.10
2018-03-18T09:46:36.691Z,58.10
2018-03-18T09:49:04.926Z,57.70
2018-03-18T09:51:32.414Z,57.70
2018-03-18T09:54:00.812Z,58.00
2018-03-18T09:56:29.260Z,57.60
2018-03-18T09:58:56.804Z,57.50
2018-03-18T10:01:24.288Z,57.90
2018-03-18T10:03:51.884Z,57.90
2018-03-18T10:06:20.214Z,56.80
2018-03-18T10:08:47.696Z,56.80
2018-03-18T10:11:15.224Z,56.50
2018-03-18T10:13:42.705Z,56.20
2018-03-18T10:16:10.239Z,56.40
2018-03-18T10:18:37.715Z,56.00
2018-03-18T10:21:05.355Z,56.90
2018-03-18T10:23:33.679Z,56.20
2018-03-18T10:26:01.911Z,55.90
2018-03-18T10:28:29.687Z,54.90
2018-03-18T10:30:57.175Z,55.20
2018-03-18T10:33:25.450Z,55.30
2018-03-18T10:35:53.711Z,54.40
2018-03-18T10:38:21.212Z,54.30
2018-03-18T10:40:49.475Z,54.00
2018-03-18T10:43:18.141Z,54.40
2018-03-18T10:45:45.606Z,54.40
2018-03-18T10:48:13.101Z,55.00
2018-03-18T10:50:41.359Z,55.10
2018-03-18T10:53:09.823Z,53.90
2018-03-18T10:55:37.307Z,53.80
2018-03-18T10:58:05.570Z,53.30
2018-03-18T11:00:38.800Z,53.30
2018-03-18T11:03:06.280Z,53.70
2018-03-18T11:05:33.744Z,53.90
2018-03-18T11:08:01.230Z,54.10
2018-03-18T11:10:29.659Z,53.90
2018-03-18T11:12:57.165Z,53.70
2018-03-18T11:15:25.296Z,52.30
2018-03-18T11:17:52.786Z,53.20
2018-03-18T11:20:20.257Z,52.90
2018-03-18T11:22:48.301Z,53.20
2018-03-18T11:25:15.780Z,52.90
2018-03-18T11:27:43.252Z,53.40
2018-03-18T11:30:10.810Z,54.30
2018-03-18T11:32:38.317Z,53.10
2018-03-18T11:35:05.805Z,51.70
2018-03-18T11:37:33.292Z,52.00
2018-03-18T11:40:00.782Z,52.50
2018-03-18T11:42:28.280Z,52.40
2018-03-18T11:44:55.758Z,52.00
2018-03-18T11:47:23.324Z,52.50
2018-03-18T11:49:51.579Z,52.80
2018-03-18T11:52:19.090Z,52.80
2018-03-18T11:54:46.559Z,54.40
2018-03-18T11:57:14.051Z,52.90
2018-03-18T11:59:41.521Z,53.70
2018-03-18T12:02:09.008Z,53.50
2018-03-18T12:04:37.262Z,53.30
2018-03-18T12:07:05.391Z,53.30
2018-03-18T12:09:33.094Z,52.60
2018-03-18T12:12:00.679Z,52.30
2018-03-18T12:14:28.237Z,52.50
2018-03-18T12:16:56.472Z,51.40
2018-03-18T12:19:23.989Z,51.40
2018-03-18T12:21:51.614Z,52.00
2018-03-18T12:24:19.147Z,52.50
2018-03-18T12:26:46.626Z,52.10
2018-03-18T12:29:14.874Z,53.30
2018-03-18T12:31:42.358Z,53.20
2018-03-18T12:34:09.946Z,52.60
2018-03-18T12:36:37.479Z,53.00
2018-03-18T12:39:05.738Z,53.00
2018-03-18T12:41:33.235Z,52.60
2018-03-18T12:44:00.970Z,52.80
2018-03-18T12:46:28.465Z,53.40
2018-03-18T12:48:57.233Z,53.50
2018-03-18T12:51:24.711Z,52.80
2018-03-18T12:53:52.327Z,52.40
2018-03-18T12:56:19.830Z,52.50
2018-03-18T12:58:47.420Z,53.00
2018-03-18T13:01:15.909Z,53.10
2018-03-18T13:03:43.735Z,53.30
2018-03-18T13:06:11.209Z,53.00
2018-03-18T13:08:39.478Z,54.20
2018-03-18T13:11:07.505Z,54.20
2018-03-18T13:13:35.104Z,53.60
2018-03-18T13:16:03.448Z,53.80
2018-03-18T13:18:30.989Z,53.80
2018-03-18T13:20:58.593Z,53.70
2018-03-18T13:23:28.737Z,53.60
2018-03-18T13:25:56.256Z,54.10
2018-03-18T13:28:23.743Z,53.50
2018-03-18T13:30:51.565Z,53.30
2018-03-18T13:33:19.022Z,53.60
2018-03-18T13:35:46.518Z,54.50
2018-03-18T13:38:13.999Z,54.30
2018-03-18T13:40:42.240Z,53.40
2018-03-18T13:43:09.773Z,53.40
2018-03-18T13:45:37.700Z,53.80
2018-03-18T13:48:06.296Z,54.00
2018-03-18T13:50:34.551Z,54.20
2018-03-18T13:53:02.800Z,54.40
2018-03-18T13:55:30.374Z,54.40
2018-03-18T13:57:58.672Z,54.40
2018-03-18T14:00:26.905Z,54.80
2018-03-18T14:02:54.378Z,54.80
2018-03-18T14:05:22.620Z,55.50
2018-03-18T14:07:50.149Z,55.10
2018-03-18T14:10:18.391Z,55.40
2018-03-18T14:12:45.858Z,55.40
2018-03-18T14:15:14.195Z,55.40
2018-03-18T14:17:41.675Z,55.40
2018-03-18T14:20:09.253Z,55.40
2018-03-18T14:22:38.112Z,56.30
2018-03-18T14:25:05.596Z,56.20
2018-03-18T14:27:33.078Z,55.80
2018-03-18T14:30:00.547Z,56.20
2018-03-18T14:32:28.798Z,56.20
2018-03-18T14:34:56.331Z,56.10
2018-03-18T14:37:24.167Z,56.50
2018-03-18T14:39:52.389Z,56.50
2018-03-18T14:42:19.854Z,56.40
2018-03-18T14:44:47.426Z,55.80
2018-03-18T14:47:15.712Z,56.50
2018-03-18T14:49:43.277Z,56.50
2018-03-18T14:52:11.527Z,56.70
2018-03-18T14:54:39.112Z,56.70
2018-03-18T14:57:06.667Z,57.70
2018-03-18T14:59:34.144Z,57.20
2018-03-18T15:02:02.386Z,57.30
2018-03-18T15:04:29.883Z,57.30
2018-03-18T15:06:58.165Z,57.10
2018-03-18T15:09:26.422Z,56.70
2018-03-18T15:11:54.682Z,56.70
2018-03-18T15:14:22.256Z,56.60
2018-03-18T15:16:49.731Z,57.20
2018-03-18T15:19:17.979Z,56.60
2018-03-18T15:21:45.453Z,56.50
2018-03-18T15:24:12.933Z,56.70
2018-03-18T15:26:41.232Z,57.40
2018-03-18T15:29:08.700Z,57.30
2018-03-18T15:31:36.204Z,58.00
2018-03-18T15:34:03.683Z,57.80
2018-03-18T15:36:31.923Z,57.30
2018-03-18T15:38:59.411Z,57.30
2018-03-18T15:41:28.245Z,56.80
2018-03-18T15:43:55.717Z,56.80
2018-03-18T15:46:23.192Z,58.10
2018-03-18T15:48:51.340Z,58.10
2018-03-18T15:51:18.798Z,58.10
2018-03-18T15:53:46.345Z,58.80
2018-03-18T15:56:13.861Z,57.90
2018-03-18T15:58:42.105Z,58.90
2018-03-18T16:01:10.149Z,58.60
2018-03-18T16:03:38.036Z,57.80
2018-03-18T16:06:05.539Z,57.60
2018-03-18T16:08:33.770Z,58.70
2018-03-18T16:11:01.251Z,58.10
2018-03-18T16:13:28.717Z,58.20
2018-03-18T16:15:56.192Z,58.50
2018-03-18T16:18:24.505Z,58.40
2018-03-18T16:20:52.188Z,58.40
2018-03-18T16:23:19.656Z,58.60
2018-03-18T16:25:47.130Z,58.50
2018-03-18T16:28:14.591Z,58.10
2018-03-18T16:30:54.192Z,57.90
2018-03-18T16:33:21.677Z,57.60
2018-03-18T16:35:49.157Z,58.30
2018-03-18T16:38:16.759Z,58.10
2018-03-18T16:40:44.242Z,58.60
2018-03-18T16:43:11.714Z,59.40
2018-03-18T16:45:40.009Z,58.30
2018-03-18T16:48:07.490Z,58.80
2018-03-18T16:50:35.733Z,59.40
2018-03-18T16:53:03.792Z,59.40
2018-03-18T16:55:31.301Z,59.50
2018-03-18T16:57:58.777Z,59.40
2018-03-18T17:00:26.273Z,59.40
2018-03-18T17:02:53.735Z,59.30
2018-03-18T17:05:21.631Z,59.70
2018-03-18T17:07:49.378Z,60.60
2018-03-18T17:10:18.134Z,59.90
2018-03-18T17:12:45.615Z,59.90
2018-03-18T17:15:13.077Z,59.40
2018-03-18T17:17:40.553Z,59.30
2018-03-18T17:20:08.801Z,60.00
2018-03-18T17:22:36.323Z,60.00
2018-03-18T17:25:03.795Z,60.40
2018-03-18T17:27:31.299Z,60.50
2018-03-18T17:29:58.887Z,60.50
2018-03-18T17:32:27.810Z,60.50
2018-03-18T17:34:55.362Z,60.40
2018-03-18T17:37:23.664Z,60.90
2018-03-18T17:39:51.183Z,60.60
2018-03-18T17:42:18.803Z,59.80
2018-03-18T17:45:00.116Z,59.80
2018-03-18T17:50:44.720Z,59.80
2018-03-18T17:56:34.094Z,59.00
2018-03-18T17:59:02.439Z,59.70
2018-03-18T18:01:29.895Z,59.50
2018-03-18T18:03:57.879Z,59.90
2018-03-18T18:06:25.382Z,60.00
2018-03-18T18:08:52.874Z,60.00
2018-03-18T18:11:20.392Z,60.40
2018-03-18T18:13:47.999Z,60.10
2018-03-18T18:16:15.639Z,59.80
2018-03-18T18:18:43.127Z,60.00
2018-03-18T18:21:10.730Z,60.30
2018-03-18T18:23:38.214Z,59.90
2018-03-18T18:26:05.696Z,60.00
2018-03-18T18:28:33.932Z,60.00
2018-03-18T18:31:01.391Z,60.30
2018-03-18T18:33:28.863Z,60.40
2018-03-18T18:35:56.357Z,60.10
2018-03-18T18:38:23.835Z,60.00
2018-03-18T18:40:51.307Z,60.30
2018-03-18T18:43:19.555Z,60.00
2018-03-18T18:45:47.127Z,60.00
2018-03-18T18:48:15.197Z,59.60
2018-03-18T18:50:42.983Z,59.50
2018-03-18T18:53:10.486Z,59.50
2018-03-18T18:55:37.959Z,59.40
2018-03-18T18:58:05.423Z,59.10
2018-03-18T19:00:33.010Z,59.10
2018-03-18T19:03:02.205Z,59.20
2018-03-18T19:05:29.617Z,59.20
2018-03-18T19:07:57.095Z,59.30
2018-03-18T19:10:25.991Z,59.50
2018-03-18T19:12:53.514Z,59.60
2018-03-18T19:15:21.907Z,59.00
2018-03-18T19:17:49.379Z,58.60
2018-03-18T19:20:16.850Z,59.10
2018-03-18T19:22:44.525Z,58.90
2018-03-18T19:25:13.994Z,59.30
2018-03-18T19:27:41.476Z,59.00
2018-03-18T19:30:08.937Z,59.10
2018-03-18T19:32:36.413Z,59.40
2018-03-18T19:35:04.654Z,59.80
2018-03-18T19:37:32.238Z,59.80
2018-03-18T19:39:59.709Z,59.10
2018-03-18T19:42:27.956Z,59.40
2018-03-18T19:44:55.434Z,59.30
2018-03-18T19:47:23.755Z,59.50
2018-03-18T19:49:51.399Z,59.40
2018-03-18T19:52:19.681Z,59.50
2018-03-18T19:54:47.142Z,59.40
2018-03-18T19:57:14.674Z,59.40
2018-03-18T19:59:42.984Z,58.90
2018-03-18T20:02:10.454Z,59.50
2018-03-18T20:04:38.016Z,58.80
2018-03-18T20:07:05.532Z,59.00
2018-03-18T20:09:33.100Z,59.60
2018-03-18T20:12:02.269Z,59.60
2018-03-18T20:14:30.500Z,59.60
2018-03-18T20:16:57.973Z,59.70
2018-03-18T20:19:25.483Z,59.80
2018-03-18T20:21:52.943Z,59.20
2018-03-18T20:24:21.685Z,59.70
2018-03-18T20:26:49.159Z,59.60
2018-03-18T20:29:16.621Z,59.70
2018-03-18T20:31:44.128Z,59.90
2018-03-18T20:34:12.139Z,59.70
2018-03-18T20:36:39.964Z,59.50
2018-03-18T20:39:07.489Z,59.60
2018-03-18T20:41:34.955Z,60.00
2018-03-18T20:44:02.443Z,60.00
2018-03-18T20:46:29.930Z,60.80
2018-03-18T20:48:57.454Z,59.90
2018-03-18T20:51:25.688Z,59.90
2018-03-18T20:53:53.216Z,59.90
2018-03-18T20:56:20.684Z,60.10
2018-03-18T20:58:48.175Z,60.00
2018-03-18T21:01:15.654Z,60.30
2018-03-18T21:03:43.894Z,60.20
2018-03-18T21:06:11.392Z,60.20
2018-03-18T21:08:39.641Z,60.00
2018-03-18T21:11:07.099Z,59.90
2018-03-18T21:13:34.572Z,60.60
2018-03-18T21:16:02.813Z,60.90
2018-03-18T21:18:30.278Z,60.50
2018-03-18T21:20:57.748Z,61.00
2018-03-18T21:23:25.225Z,60.50
2018-03-18T21:25:53.235Z,60.10
2018-03-18T21:28:20.807Z,60.30
2018-03-18T21:30:49.022Z,60.50
2018-03-18T21:33:16.512Z,60.50
2018-03-18T21:35:43.981Z,59.90
2018-03-18T21:38:11.502Z,60.50
2018-03-18T21:40:39.798Z,60.50
2018-03-18T21:43:08.030Z,60.60
2018-03-18T21:45:35.540Z,60.50
2018-03-18T21:48:03.757Z,60.30
2018-03-18T21:50:31.242Z,60.20
2018-03-18T21:52:59.188Z,60.50
2018-03-18T21:55:26.775Z,60.60
2018-03-18T21:57:54.246Z,60.40
2018-03-18T22:00:22.561Z,60.90
2018-03-18T22:02:50.033Z,60.80
2018-03-18T22:05:17.502Z,61.00
2018-03-18T22:07:44.970Z,61.50
2018-03-18T22:10:12.479Z,61.30
2018-03-18T22:12:40.687Z,60.80
2018-03-18T22:15:08.248Z,59.90
2018-03-18T22:17:35.709Z,60.20
2018-03-18T22:20:03.190Z,60.30
2018-03-18T22:22:30.655Z,60.40
2018-03-18T22:24:58.631Z,60.70
2018-03-18T22:27:26.098Z,60.70
2018-03-18T22:29:54.483Z,61.00
2018-03-18T22:32:22.773Z,61.40
2018-03-18T22:34:51.040Z,60.80
2018-03-18T22:37:19.282Z,61.20
2018-03-18T22:39:46.755Z,61.10
2018-03-18T22:42:14.737Z,61.40
2018-03-18T22:44:43.003Z,61.20
2018-03-18T22:47:11.264Z,61.10
2018-03-18T22:49:38.747Z,61.10
2018-03-18T22:52:07.133Z,61.60
2018-03-18T22:54:35.455Z,61.80
2018-03-18T22:57:02.963Z,61.70
2018-03-18T22:59:30.415Z,61.20
2018-03-18T23:01:58.074Z,61.30
2018-03-18T23:04:25.565Z,62.20
2018-03-18T23:06:52.994Z,61.50
2018-03-18T23:09:20.542Z,62.10
2018-03-18T23:11:48.009Z,61.80
2018-03-18T23:14:15.475Z,61.70
2018-03-18T23:16:43.711Z,62.20
2018-03-18T23:19:11.998Z,61.60
2018-03-18T23:21:39.578Z,62.30
2018-03-18T23:24:07.045Z,62.90
2018-03-18T23:26:34.523Z,62.20
2018-03-18T23:29:03.167Z,62.40
2018-03-18T23:31:30.628Z,62.40
2018-03-18T23:33:58.855Z,62.40
2018-03-18T23:36:26.321Z,62.10
2018-03-18T23:38:53.790Z,62.60
2018-03-18T23:41:21.288Z,62.20
2018-03-18T23:43:48.742Z,62.50
2018-03-18T23:46:16.298Z,62.40
2018-03-18T23:48:43.757Z,63.10
2018-03-18T23:51:11.322Z,62.70
2018-03-18T23:53:39.080Z,62.50
2018-03-18T23:56:06.760Z,62.90
2018-03-18T23:58:34.311Z,62.90
